createdAt,value
2023-04-27T00:00:29.084Z,487.3333
2023-04-27T00:01:32.961Z,485.6667
2023-04-27T00:02:36.943Z,483.6667
2023-04-27T00:03:41.336Z,482.9167
2023-04-27T00:04:45.464Z,481.9167
2023-04-27T00:05:49.538Z,489.4167
2023-04-27T00:06:53.455Z,491.6667
2023-04-27T00:07:57.365Z,490.2500
2023-04-27T00:09:01.292Z,488.0000
2023-04-27T00:10:05.162Z,482.9167
2023-04-27T00:11:09.071Z,478.5833
2023-04-27T00:12:12.953Z,483.2500
2023-04-27T00:13:17.135Z,486.1667
2023-04-27T00:14:21.031Z,486.9167
2023-04-27T00:15:25.265Z,486.1667
2023-04-27T00:16:29.180Z,484.0833
2023-04-27T00:17:33.093Z,478.8333
2023-04-27T00:18:36.950Z,481.5000
2023-04-27T00:19:40.927Z,484.7500
2023-04-27T00:20:44.794Z,485.9167
2023-04-27T00:21:48.662Z,484.4167
2023-04-27T00:22:52.574Z,484.5833
2023-04-27T00:23:56.455Z,481.4167
2023-04-27T00:25:00.352Z,485.0000
2023-04-27T00:26:04.291Z,487.9167
2023-04-27T00:27:08.155Z,488.2500
2023-04-27T00:28:12.254Z,488.0833
2023-04-27T00:29:16.159Z,483.8333
2023-04-27T00:30:20.282Z,477.2500
2023-04-27T00:31:24.226Z,482.0833
2023-04-27T00:32:28.183Z,490.0833
2023-04-27T00:33:32.070Z,490.0000
2023-04-27T00:34:35.955Z,488.1667
2023-04-27T00:35:39.869Z,483.9167
2023-04-27T00:36:43.766Z,476.5833
2023-04-27T00:37:47.666Z,478.3333
2023-04-27T00:38:51.582Z,484.9167
2023-04-27T00:39:55.694Z,487.0833
2023-04-27T00:40:59.608Z,486.4167
2023-04-27T00:42:03.499Z,486.7500
2023-04-27T00:43:07.404Z,479.8333
2023-04-27T00:44:11.287Z,479.9167
2023-04-27T00:45:15.232Z,483.8333
2023-04-27T00:46:19.313Z,489.2500
2023-04-27T00:47:23.215Z,490.4167
2023-04-27T00:48:27.078Z,488.8333
2023-04-27T00:49:30.983Z,482.0000
2023-04-27T00:50:34.871Z,481.8333
2023-04-27T00:51:38.799Z,485.8333
2023-04-27T00:52:42.679Z,487.0833
2023-04-27T00:53:46.581Z,487.3333
2023-04-27T00:54:50.702Z,487.0833
2023-04-27T00:55:54.593Z,480.5833
2023-04-27T00:56:58.487Z,477.3333
2023-04-27T00:58:02.423Z,484.4167
2023-04-27T00:59:06.303Z,487.5833
2023-04-27T01:00:10.204Z,491.0000
2023-04-27T01:01:14.093Z,490.3333
2023-04-27T01:02:18.036Z,484.0833
2023-04-27T01:03:22.054Z,479.9167
2023-04-27T01:04:26.120Z,483.5000
2023-04-27T01:05:31.995Z,486.3333
2023-04-27T01:06:31.150Z,485.1818
2023-04-27T01:07:35.068Z,484.5000
2023-04-27T01:08:38.947Z,481.8333
2023-04-27T01:09:42.954Z,479.1667
2023-04-27T01:10:46.847Z,482.3333
2023-04-27T01:11:50.845Z,489.9167
2023-04-27T01:12:54.745Z,491.3333
2023-04-27T01:13:58.632Z,488.5000
2023-04-27T01:15:02.547Z,486.4167
2023-04-27T01:16:06.432Z,477.4167
2023-04-27T01:17:10.387Z,476.3333
2023-04-27T01:18:14.330Z,483.7500
2023-04-27T01:19:18.220Z,484.8333
2023-04-27T01:20:22.109Z,484.3333
2023-04-27T01:21:26.017Z,483.0833
2023-04-27T01:22:29.992Z,472.6667
2023-04-27T01:23:33.854Z,474.1667
2023-04-27T01:24:37.745Z,486.2500
2023-04-27T01:25:41.669Z,490.0833
2023-04-27T01:26:45.541Z,490.3333
2023-04-27T01:27:49.687Z,488.5000
2023-04-27T01:28:53.640Z,484.6667
2023-04-27T01:29:57.520Z,481.6667
2023-04-27T01:31:01.426Z,485.2500
2023-04-27T01:32:05.312Z,485.7500
2023-04-27T01:33:09.269Z,483.6667
2023-04-27T01:34:13.175Z,483.2500
2023-04-27T01:35:17.097Z,479.1667
2023-04-27T01:36:21.182Z,468.7500
2023-04-27T01:37:25.404Z,472.0000
2023-04-27T01:38:29.286Z,477.5000
2023-04-27T01:39:33.194Z,479.1667
2023-04-27T01:40:37.115Z,479.5000
2023-04-27T01:41:41.000Z,477.8333
2023-04-27T01:42:44.890Z,473.2500
2023-04-27T01:43:48.817Z,476.0833
2023-04-27T01:44:52.695Z,481.3333
2023-04-27T01:45:56.629Z,481.5833
2023-04-27T01:47:00.496Z,481.8333
2023-04-27T01:48:04.719Z,480.7500
2023-04-27T01:49:08.677Z,472.3333
2023-04-27T01:50:12.623Z,475.4167
2023-04-27T01:51:16.494Z,482.0833
2023-04-27T01:52:20.385Z,485.6667
2023-04-27T01:53:24.289Z,485.5000
2023-04-27T01:54:28.785Z,483.4167
2023-04-27T01:55:32.728Z,477.8333
2023-04-27T01:56:36.614Z,475.5000
2023-04-27T01:57:40.540Z,478.8333
2023-04-27T01:58:44.409Z,480.9167
2023-04-27T01:59:48.318Z,482.5000
2023-04-27T02:00:52.246Z,483.0833
2023-04-27T02:01:56.210Z,480.4167
2023-04-27T02:03:00.203Z,480.3333
2023-04-27T02:04:04.445Z,486.4167
2023-04-27T02:05:08.447Z,488.0000
2023-04-27T02:06:12.522Z,488.0000
2023-04-27T02:07:16.392Z,486.1667
2023-04-27T02:08:20.303Z,482.3333
2023-04-27T02:09:24.179Z,478.6667
2023-04-27T02:10:28.113Z,482.5833
2023-04-27T02:11:32.046Z,485.7500
2023-04-27T02:12:36.066Z,487.7500
2023-04-27T02:13:39.965Z,486.6667
2023-04-27T02:14:43.857Z,483.0833
2023-04-27T02:15:47.772Z,474.2500
2023-04-27T02:16:51.661Z,478.0833
2023-04-27T02:17:55.659Z,482.9167
2023-04-27T02:18:59.623Z,483.7500
2023-04-27T02:20:03.506Z,483.5000
2023-04-27T02:21:07.393Z,482.8333
2023-04-27T02:22:11.285Z,479.9167
2023-04-27T02:23:15.208Z,480.4167
2023-04-27T02:24:19.076Z,485.8333
2023-04-27T02:25:23.005Z,488.8333
2023-04-27T02:26:26.885Z,486.0000
2023-04-27T02:27:30.800Z,484.8333
2023-04-27T02:28:35.100Z,480.2500
2023-04-27T02:29:39.507Z,481.5000
2023-04-27T02:30:43.925Z,485.8333
2023-04-27T02:31:47.911Z,487.9167
2023-04-27T02:32:51.852Z,486.9167
2023-04-27T02:33:55.757Z,486.5833
2023-04-27T02:34:59.639Z,482.5000
2023-04-27T02:36:03.538Z,481.1667
2023-04-27T02:37:07.416Z,482.5833
2023-04-27T02:38:11.360Z,485.5833
2023-04-27T02:39:15.529Z,487.5833
2023-04-27T02:40:19.646Z,486.8333
2023-04-27T02:41:23.524Z,483.9167
2023-04-27T02:42:27.959Z,480.3333
2023-04-27T02:43:31.856Z,483.5833
2023-04-27T02:44:35.800Z,486.8333
2023-04-27T02:45:39.719Z,486.6667
2023-04-27T02:46:43.613Z,486.5000
2023-04-27T02:47:47.632Z,484.9167
2023-04-27T02:48:51.498Z,482.0000
2023-04-27T02:49:55.412Z,484.0833
2023-04-27T02:50:59.331Z,486.4167
2023-04-27T02:52:03.229Z,486.6667
2023-04-27T02:53:07.098Z,486.0833
2023-04-27T02:54:11.016Z,484.2500
2023-04-27T02:55:14.899Z,480.5000
2023-04-27T02:56:19.021Z,482.4167
2023-04-27T02:57:22.964Z,486.9167
2023-04-27T02:58:26.842Z,487.8333
2023-04-27T02:59:30.940Z,486.3333
2023-04-27T03:00:34.896Z,483.6667
2023-04-27T03:01:39.193Z,477.9167
2023-04-27T03:02:43.245Z,480.7500
2023-04-27T03:03:47.263Z,484.0833
2023-04-27T03:04:51.385Z,486.5833
2023-04-27T03:05:55.346Z,486.8333
2023-04-27T03:06:59.251Z,487.2500
2023-04-27T03:08:03.125Z,482.3333
2023-04-27T03:09:07.046Z,485.0833
2023-04-27T03:10:10.939Z,487.3333
2023-04-27T03:11:14.852Z,487.5000
2023-04-27T03:12:18.974Z,485.6667
2023-04-27T03:13:22.879Z,485.0000
2023-04-27T03:14:27.039Z,482.0000
2023-04-27T03:15:30.965Z,482.0000
2023-04-27T03:16:34.855Z,487.9167
2023-04-27T03:17:38.793Z,491.1667
2023-04-27T03:18:42.669Z,490.5000
2023-04-27T03:19:46.573Z,490.9167
2023-04-27T03:20:50.462Z,487.4167
2023-04-27T03:21:54.396Z,484.1667
2023-04-27T03:22:58.268Z,489.0833
2023-04-27T03:24:02.182Z,495.0833
2023-04-27T03:25:06.070Z,494.4167
2023-04-27T03:26:09.977Z,495.5000
2023-04-27T03:27:13.891Z,494.5833
2023-04-27T03:28:17.791Z,490.5000
2023-04-27T03:29:21.678Z,495.0833
2023-04-27T03:30:25.582Z,501.0000
2023-04-27T03:31:29.487Z,502.4167
2023-04-27T03:32:33.420Z,500.6667
2023-04-27T03:33:37.341Z,496.4167
2023-04-27T03:34:41.229Z,489.0833
2023-04-27T03:35:45.113Z,492.9167
2023-04-27T03:36:49.029Z,497.5833
2023-04-27T03:37:52.931Z,499.0000
2023-04-27T03:38:56.809Z,497.9167
2023-04-27T03:40:00.778Z,494.2500
2023-04-27T03:41:04.650Z,486.9167
2023-04-27T03:42:08.564Z,486.0000
2023-04-27T03:43:12.455Z,488.9167
2023-04-27T03:44:16.369Z,490.2500
2023-04-27T03:45:20.245Z,491.5000
2023-04-27T03:46:24.234Z,492.8333
2023-04-27T03:47:28.172Z,490.5833
2023-04-27T03:48:32.064Z,487.9167
2023-04-27T03:49:35.918Z,490.5000
2023-04-27T03:50:39.823Z,491.2500
2023-04-27T03:51:43.714Z,489.5833
2023-04-27T03:52:47.669Z,488.3333
2023-04-27T03:53:51.548Z,481.6667
2023-04-27T03:54:55.452Z,476.1667
2023-04-27T03:55:59.342Z,484.8333
2023-04-27T03:57:03.248Z,490.6667
2023-04-27T03:58:07.299Z,495.6667
2023-04-27T03:59:11.406Z,493.0833
2023-04-27T04:00:15.325Z,489.9167
2023-04-27T04:01:19.213Z,486.5000
2023-04-27T04:02:23.174Z,492.5833
2023-04-27T04:03:27.385Z,496.8333
2023-04-27T04:04:31.797Z,496.3333
2023-04-27T04:05:35.840Z,494.5833
2023-04-27T04:06:39.750Z,492.0000
2023-04-27T04:07:43.647Z,486.6667
2023-04-27T04:08:47.555Z,491.5000
2023-04-27T04:09:51.431Z,495.9167
2023-04-27T04:10:55.356Z,494.5000
2023-04-27T04:11:59.238Z,492.6667
2023-04-27T04:13:03.133Z,490.3333
2023-04-27T04:14:07.049Z,484.5000
2023-04-27T04:15:10.943Z,486.9167
2023-04-27T04:16:14.887Z,491.8333
2023-04-27T04:17:18.797Z,492.1667
2023-04-27T04:18:22.673Z,494.7500
2023-04-27T04:19:26.881Z,491.5833
2023-04-27T04:20:30.745Z,486.6667
2023-04-27T04:21:34.669Z,487.7500
2023-04-27T04:22:38.589Z,489.6667
2023-04-27T04:23:42.492Z,489.6667
2023-04-27T04:24:46.399Z,490.0000
2023-04-27T04:25:50.344Z,489.2500
2023-04-27T04:26:54.197Z,484.1667
2023-04-27T04:27:58.092Z,484.1667
2023-04-27T04:29:02.298Z,487.8333
2023-04-27T04:30:06.355Z,487.7500
2023-04-27T04:31:10.335Z,484.9167
2023-04-27T04:32:14.229Z,484.5833
2023-04-27T04:33:18.133Z,478.9167
2023-04-27T04:34:22.033Z,476.2500
2023-04-27T04:35:25.924Z,483.6667
2023-04-27T04:36:29.834Z,487.3333
2023-04-27T04:37:33.719Z,488.2500
2023-04-27T04:38:37.614Z,487.2500
2023-04-27T04:39:41.544Z,483.9167
2023-04-27T04:40:46.198Z,482.3333
2023-04-27T04:41:50.071Z,488.7500
2023-04-27T04:42:53.950Z,492.3333
2023-04-27T04:43:58.105Z,490.3333
2023-04-27T04:45:02.009Z,489.6667
2023-04-27T04:46:06.020Z,488.3333
2023-04-27T04:47:10.154Z,486.0000
2023-04-27T04:48:14.037Z,489.1667
2023-04-27T04:49:17.957Z,493.7500
2023-04-27T04:50:21.849Z,494.3333
2023-04-27T04:51:25.779Z,493.9167
2023-04-27T04:52:29.699Z,494.8333
2023-04-27T04:53:33.597Z,488.8333
2023-04-27T04:54:37.473Z,488.5833
2023-04-27T04:55:41.379Z,491.3333
2023-04-27T04:56:45.272Z,492.4167
2023-04-27T04:57:49.202Z,492.3333
2023-04-27T04:58:53.070Z,488.5833
2023-04-27T04:59:56.968Z,480.9167
2023-04-27T05:01:00.851Z,483.1667
2023-04-27T05:02:05.189Z,487.9167
2023-04-27T05:03:09.138Z,487.0833
2023-04-27T05:04:13.291Z,487.8333
2023-04-27T05:05:17.367Z,488.5000
2023-04-27T05:06:21.275Z,484.3333
2023-04-27T05:07:25.243Z,485.8333
2023-04-27T05:08:29.111Z,491.7500
2023-04-27T05:09:33.053Z,497.7500
2023-04-27T05:10:36.941Z,497.0000
2023-04-27T05:11:40.832Z,496.0833
2023-04-27T05:12:44.739Z,491.0000
2023-04-27T05:13:48.731Z,490.5833
2023-04-27T05:14:52.598Z,490.8333
2023-04-27T05:15:56.592Z,491.0000
2023-04-27T05:17:00.463Z,491.8333
2023-04-27T05:18:04.411Z,490.5833
2023-04-27T05:19:08.320Z,485.6667
2023-04-27T05:20:12.199Z,485.3333
2023-04-27T05:21:16.136Z,492.4167
2023-04-27T05:22:20.017Z,495.3333
2023-04-27T05:23:24.059Z,496.5833
2023-04-27T05:24:27.970Z,498.7500
2023-04-27T05:25:31.844Z,497.9167
2023-04-27T05:26:35.744Z,495.3333
2023-04-27T05:27:39.691Z,500.0833
2023-04-27T05:28:43.841Z,498.5833
2023-04-27T05:29:47.749Z,497.8333
2023-04-27T05:30:51.633Z,495.4167
2023-04-27T05:31:55.566Z,488.0833
2023-04-27T05:32:59.506Z,485.0000
2023-04-27T05:34:03.446Z,491.1667
2023-04-27T05:35:07.330Z,493.9167
2023-04-27T05:36:11.206Z,492.0000
2023-04-27T05:37:15.129Z,490.5000
2023-04-27T05:38:19.100Z,488.9167
2023-04-27T05:39:23.024Z,483.6667
2023-04-27T05:40:26.871Z,483.8333
2023-04-27T05:41:31.014Z,486.3333
2023-04-27T05:42:34.907Z,487.6667
2023-04-27T05:43:38.816Z,585.9167
2023-04-27T05:44:42.704Z,705.7500
2023-04-27T05:45:46.650Z,791.8333
2023-04-27T05:46:50.557Z,607.0833
2023-04-27T05:47:54.477Z,591.8333
2023-04-27T05:48:58.392Z,603.1667
2023-04-27T05:50:02.322Z,610.6667
2023-04-27T05:51:06.188Z,615.2500
2023-04-27T05:52:10.114Z,617.5833
2023-04-27T05:53:13.992Z,619.5833
2023-04-27T05:54:17.977Z,619.8333
2023-04-27T05:55:21.829Z,617.4167
2023-04-27T05:56:25.753Z,613.5000
2023-04-27T05:57:29.670Z,613.1667
2023-04-27T05:58:33.613Z,612.4167
2023-04-27T05:59:37.505Z,613.0833
2023-04-27T06:00:41.398Z,612.0833
2023-04-27T06:01:45.301Z,609.6667
2023-04-27T06:02:49.383Z,609.8333
2023-04-27T06:03:53.504Z,615.4167
2023-04-27T06:04:57.506Z,615.2500
2023-04-27T06:06:01.399Z,612.5000
2023-04-27T06:07:05.313Z,614.0000
2023-04-27T06:08:09.211Z,611.8333
2023-04-27T06:09:13.243Z,608.6667
2023-04-27T06:10:17.275Z,610.3333
2023-04-27T06:11:21.421Z,613.9167
2023-04-27T06:12:25.335Z,614.8333
2023-04-27T06:13:29.253Z,614.8333
2023-04-27T06:14:33.207Z,614.2500
2023-04-27T06:15:37.110Z,610.8333
2023-04-27T06:16:41.017Z,614.1667
2023-04-27T06:17:44.924Z,615.9167
2023-04-27T06:18:48.825Z,616.5000
2023-04-27T06:19:52.726Z,618.0833
2023-04-27T06:20:56.625Z,616.6667
2023-04-27T06:22:00.538Z,611.4167
2023-04-27T06:23:04.410Z,612.3333
2023-04-27T06:24:08.283Z,614.8333
2023-04-27T06:25:12.183Z,614.6667
2023-04-27T06:26:16.062Z,615.4167
2023-04-27T06:27:20.000Z,614.5833
2023-04-27T06:28:23.889Z,609.4167
2023-04-27T06:29:27.764Z,610.8333
2023-04-27T06:30:31.642Z,615.7500
2023-04-27T06:31:35.601Z,616.2500
2023-04-27T06:32:39.484Z,614.9167
2023-04-27T06:33:43.380Z,615.1667
2023-04-27T06:34:47.430Z,613.7500
2023-04-27T06:35:51.319Z,613.1667
2023-04-27T06:36:55.217Z,616.4167
2023-04-27T06:37:59.185Z,616.6667
2023-04-27T06:39:03.142Z,615.5000
2023-04-27T06:40:07.101Z,615.6667
2023-04-27T06:41:10.980Z,615.2500
2023-04-27T06:42:14.878Z,613.9167
2023-04-27T06:43:18.779Z,616.1667
2023-04-27T06:44:22.938Z,618.5000
2023-04-27T06:45:26.868Z,618.6667
2023-04-27T06:46:30.789Z,619.8333
2023-04-27T06:47:34.788Z,617.9167
2023-04-27T06:48:38.664Z,613.2500
2023-04-27T06:49:42.563Z,611.9167
2023-04-27T06:50:46.482Z,615.0833
2023-04-27T06:51:50.394Z,616.7500
2023-04-27T06:52:54.317Z,614.5833
2023-04-27T06:53:58.199Z,613.4167
2023-04-27T06:55:02.100Z,609.5000
2023-04-27T06:56:06.012Z,607.8333
2023-04-27T06:57:09.932Z,609.6667
2023-04-27T06:58:13.911Z,612.6667
2023-04-27T06:59:17.784Z,614.9167
2023-04-27T07:00:21.702Z,616.7500
2023-04-27T07:01:25.648Z,613.4167
2023-04-27T07:02:29.551Z,610.9167
2023-04-27T07:03:33.599Z,614.1667
2023-04-27T07:04:37.575Z,616.0000
2023-04-27T07:05:41.515Z,615.2500
2023-04-27T07:06:45.442Z,614.2500
2023-04-27T07:07:49.343Z,611.3333
2023-04-27T07:08:53.233Z,606.6667
2023-04-27T07:09:57.319Z,607.0833
2023-04-27T07:11:01.205Z,609.0833
2023-04-27T07:12:05.094Z,608.4167
2023-04-27T07:13:09.579Z,608.8333
2023-04-27T07:14:13.893Z,608.3333
2023-04-27T07:15:17.811Z,606.0833
2023-04-27T07:16:21.784Z,607.1667
2023-04-27T07:17:25.665Z,608.7500
2023-04-27T07:18:29.506Z,607.7500
2023-04-27T07:19:33.406Z,607.0833
2023-04-27T07:20:37.285Z,608.6667
2023-04-27T07:21:41.302Z,607.3333
2023-04-27T07:22:45.192Z,606.2500
2023-04-27T07:23:49.092Z,608.6667
2023-04-27T07:24:53.021Z,608.3333
2023-04-27T07:25:56.914Z,609.3333
2023-04-27T07:27:00.826Z,608.0000
2023-04-27T07:28:04.713Z,603.5000
2023-04-27T07:29:22.975Z,601.9167
2023-04-27T07:30:13.157Z,604.5455
2023-04-27T07:31:17.121Z,603.1667
2023-04-27T07:32:21.043Z,602.1667
2023-04-27T07:33:24.947Z,602.8333
2023-04-27T07:34:32.897Z,603.5833
2023-04-27T07:35:33.619Z,600.6364
2023-04-27T07:36:37.521Z,602.9167
2023-04-27T07:37:41.437Z,602.5000
2023-04-27T07:38:45.352Z,601.2500
2023-04-27T07:39:49.293Z,601.9167
2023-04-27T07:40:53.197Z,601.5000
2023-04-27T07:41:57.147Z,600.1667
2023-04-27T07:43:01.032Z,602.8333
2023-04-27T07:44:04.933Z,606.1667
2023-04-27T07:45:08.823Z,605.8333
2023-04-27T07:46:12.748Z,604.5833
2023-04-27T07:47:16.716Z,605.4167
2023-04-27T07:48:20.680Z,599.5000
2023-04-27T07:49:24.555Z,598.3333
2023-04-27T07:50:28.454Z,600.0000
2023-04-27T07:51:32.337Z,601.3333
2023-04-27T07:52:36.222Z,601.1667
2023-04-27T07:53:40.104Z,599.0000
2023-04-27T07:54:44.053Z,594.8333
2023-04-27T07:55:47.955Z,592.5000
2023-04-27T07:56:51.865Z,597.0833
2023-04-27T07:57:55.761Z,599.1667
2023-04-27T07:58:59.644Z,599.0000
2023-04-27T08:00:03.529Z,599.6667
2023-04-27T08:01:07.532Z,597.4167
2023-04-27T08:02:19.534Z,596.5833
2023-04-27T08:03:16.053Z,603.3636
2023-04-27T08:04:20.628Z,605.0833
2023-04-27T08:05:24.796Z,605.2500
2023-04-27T08:06:29.699Z,605.6667
2023-04-27T08:07:35.507Z,604.0000
2023-04-27T08:08:36.839Z,599.0000
2023-04-27T08:09:40.736Z,599.9167
2023-04-27T08:10:44.644Z,600.4167
2023-04-27T08:11:48.552Z,600.8333
2023-04-27T08:12:52.458Z,600.1667
2023-04-27T08:13:56.407Z,597.0000
2023-04-27T08:15:00.311Z,595.6667
2023-04-27T08:16:04.219Z,599.7500
2023-04-27T08:17:08.146Z,601.3333
2023-04-27T08:18:12.116Z,602.3333
2023-04-27T08:19:16.384Z,603.0000
2023-04-27T08:20:20.332Z,602.0000
2023-04-27T08:21:24.201Z,598.5000
2023-04-27T08:22:28.087Z,600.4167
2023-04-27T08:23:31.999Z,602.7500
2023-04-27T08:24:35.975Z,603.9167
2023-04-27T08:25:39.875Z,605.0000
2023-04-27T08:26:43.813Z,603.7500
2023-04-27T08:27:47.705Z,599.3333
2023-04-27T08:28:51.614Z,598.5000
2023-04-27T08:29:55.542Z,601.6667
2023-04-27T08:30:59.480Z,602.4167
2023-04-27T08:32:03.394Z,602.0833
2023-04-27T08:33:07.355Z,602.5000
2023-04-27T08:34:11.564Z,600.6667
2023-04-27T08:35:15.485Z,597.2500
2023-04-27T08:36:19.358Z,599.6667
2023-04-27T08:37:23.283Z,598.1667
2023-04-27T08:38:27.228Z,595.9167
2023-04-27T08:39:31.149Z,595.6667
2023-04-27T08:40:35.059Z,592.8333
2023-04-27T08:41:38.974Z,589.2500
2023-04-27T08:42:42.871Z,591.3333
2023-04-27T08:43:46.769Z,594.6667
2023-04-27T08:44:50.696Z,594.7500
2023-04-27T08:45:54.597Z,594.5000
2023-04-27T08:46:58.470Z,594.9167
2023-04-27T08:48:02.409Z,592.5000
2023-04-27T08:49:06.339Z,595.2500
2023-04-27T08:50:10.220Z,598.5833
2023-04-27T08:51:14.164Z,600.5833
2023-04-27T08:52:18.055Z,602.0000
2023-04-27T08:53:21.957Z,599.8333
2023-04-27T08:54:25.866Z,597.8333
2023-04-27T08:55:29.789Z,598.5000
2023-04-27T08:56:33.707Z,600.3333
2023-04-27T08:57:37.649Z,601.7500
2023-04-27T08:58:41.548Z,600.3333
2023-04-27T08:59:45.564Z,598.2500
2023-04-27T09:00:50.780Z,592.7500
2023-04-27T09:01:51.145Z,591.3636
2023-04-27T09:02:55.307Z,592.7500
2023-04-27T09:03:59.772Z,593.8333
2023-04-27T09:05:04.170Z,594.0000
2023-04-27T09:06:08.227Z,594.1667
2023-04-27T09:07:08.420Z,590.5455
2023-04-27T09:08:12.338Z,586.6667
2023-04-27T09:09:16.385Z,590.6667
2023-04-27T09:10:20.309Z,594.5833
2023-04-27T09:11:24.189Z,594.3333
2023-04-27T09:12:28.086Z,594.0000
2023-04-27T09:13:31.972Z,592.3333
2023-04-27T09:14:35.867Z,589.5833
2023-04-27T09:15:39.767Z,590.0833
2023-04-27T09:16:44.020Z,592.0000
2023-04-27T09:17:48.032Z,593.5000
2023-04-27T09:18:51.967Z,595.5000
2023-04-27T09:19:55.852Z,593.3333
2023-04-27T09:20:59.762Z,590.0833
2023-04-27T09:22:03.679Z,592.3333
2023-04-27T09:23:07.619Z,594.9167
2023-04-27T09:24:11.506Z,594.3333
2023-04-27T09:25:15.403Z,594.1667
2023-04-27T09:26:19.286Z,591.9167
2023-04-27T09:27:23.479Z,589.4167
2023-04-27T09:28:27.405Z,591.5833
2023-04-27T09:29:31.314Z,591.0000
2023-04-27T09:30:35.202Z,591.6667
2023-04-27T09:31:39.202Z,592.3333
2023-04-27T09:32:43.120Z,592.0000
2023-04-27T09:33:47.036Z,587.0000
2023-04-27T09:34:51.183Z,590.4167
2023-04-27T09:35:55.064Z,593.8333
2023-04-27T09:36:58.951Z,594.6667
2023-04-27T09:38:02.845Z,595.6667
2023-04-27T09:39:06.761Z,595.8333
2023-04-27T09:40:10.645Z,591.5000
2023-04-27T09:41:14.566Z,590.4167
2023-04-27T09:42:18.480Z,592.9167
2023-04-27T09:43:22.351Z,592.5833
2023-04-27T09:44:26.249Z,593.3333
2023-04-27T09:45:30.194Z,593.7500
2023-04-27T09:46:34.073Z,587.6667
2023-04-27T09:47:38.060Z,585.8333
2023-04-27T09:48:41.975Z,593.0833
2023-04-27T09:49:45.856Z,593.0000
2023-04-27T09:50:49.769Z,592.7500
2023-04-27T09:51:53.683Z,592.1667
2023-04-27T09:52:57.592Z,587.8333
2023-04-27T09:54:01.513Z,583.4167
2023-04-27T09:55:05.413Z,584.5000
2023-04-27T09:56:09.325Z,588.0000
2023-04-27T09:57:13.219Z,587.5000
2023-04-27T09:58:17.118Z,588.0000
2023-04-27T09:59:21.049Z,587.2500
2023-04-27T10:00:25.221Z,586.0833
2023-04-27T10:01:29.176Z,589.5000
2023-04-27T10:02:35.116Z,592.6667
2023-04-27T10:03:37.654Z,593.0000
2023-04-27T10:04:41.713Z,594.0833
2023-04-27T10:05:45.689Z,590.5000
2023-04-27T10:06:49.581Z,586.3333
2023-04-27T10:07:53.486Z,586.5000
2023-04-27T10:08:57.537Z,590.7500
2023-04-27T10:10:01.434Z,591.2500
2023-04-27T10:11:05.362Z,590.4167
2023-04-27T10:12:09.265Z,590.8333
2023-04-27T10:13:13.160Z,589.5833
2023-04-27T10:14:17.071Z,588.4167
2023-04-27T10:15:20.988Z,591.0000
2023-04-27T10:16:25.016Z,591.7500
2023-04-27T10:17:25.297Z,591.0909
2023-04-27T10:18:29.193Z,590.6667
2023-04-27T10:19:33.085Z,588.0000
2023-04-27T10:20:37.006Z,586.8333
2023-04-27T10:21:40.912Z,588.0000
2023-04-27T10:22:44.814Z,587.7500
2023-04-27T10:23:48.745Z,589.9167
2023-04-27T10:24:52.656Z,592.1667
2023-04-27T10:25:56.540Z,592.1667
2023-04-27T10:27:00.707Z,591.1667
2023-04-27T10:28:04.617Z,590.1667
2023-04-27T10:29:08.773Z,590.8333
2023-04-27T10:30:12.703Z,588.9167
2023-04-27T10:31:16.654Z,586.5000
2023-04-27T10:32:20.543Z,583.5000
2023-04-27T10:33:24.429Z,580.3333
2023-04-27T10:34:28.336Z,579.8333
2023-04-27T10:35:32.257Z,581.8333
2023-04-27T10:36:36.188Z,581.6667
2023-04-27T10:37:40.090Z,583.8333
2023-04-27T10:38:43.999Z,585.0833
2023-04-27T10:39:49.588Z,581.3333
2023-04-27T10:40:49.014Z,582.8182
2023-04-27T10:41:52.913Z,584.7500
2023-04-27T10:42:56.862Z,586.6667
2023-04-27T10:44:00.758Z,586.7500
2023-04-27T10:45:04.648Z,585.0000
2023-04-27T10:46:08.596Z,579.5833
2023-04-27T10:47:12.747Z,580.8333
2023-04-27T10:48:16.632Z,584.8333
2023-04-27T10:49:20.572Z,586.2500
2023-04-27T10:50:24.436Z,585.4167
2023-04-27T10:51:28.348Z,584.5833
2023-04-27T10:52:32.271Z,580.7500
2023-04-27T10:53:36.179Z,579.3333
2023-04-27T10:54:40.119Z,580.9167
2023-04-27T10:55:44.027Z,580.7500
2023-04-27T10:56:47.938Z,579.8333
2023-04-27T10:57:51.835Z,579.2500
2023-04-27T10:58:55.722Z,573.6667
2023-04-27T10:59:59.612Z,572.7500
2023-04-27T11:01:03.565Z,575.9167
2023-04-27T11:02:07.482Z,576.4167
2023-04-27T11:03:11.619Z,575.0833
2023-04-27T11:04:15.822Z,573.8333
2023-04-27T11:05:19.961Z,573.1667
2023-04-27T11:06:23.841Z,571.1667
2023-04-27T11:07:27.877Z,574.6667
2023-04-27T11:08:31.798Z,575.7500
2023-04-27T11:09:35.748Z,576.8333
2023-04-27T11:10:39.640Z,578.5000
2023-04-27T11:11:43.578Z,577.8333
2023-04-27T11:12:47.472Z,575.9167
2023-04-27T11:13:51.413Z,580.9167
2023-04-27T11:14:55.313Z,584.6667
2023-04-27T11:15:59.258Z,585.3333
2023-04-27T11:17:03.109Z,582.2500
2023-04-27T11:18:07.049Z,581.8333
2023-04-27T11:19:10.989Z,576.7500
2023-04-27T11:20:14.917Z,575.4167
2023-04-27T11:21:19.081Z,579.3333
2023-04-27T11:22:23.005Z,582.5000
2023-04-27T11:23:26.867Z,582.0000
2023-04-27T11:24:30.776Z,582.0000
2023-04-27T11:25:34.730Z,578.8333
2023-04-27T11:26:38.611Z,578.0000
2023-04-27T11:27:42.512Z,576.5833
2023-04-27T11:28:46.746Z,576.4167
2023-04-27T11:29:50.645Z,577.8333
2023-04-27T11:30:54.573Z,577.0000
2023-04-27T11:31:58.776Z,572.9167
2023-04-27T11:33:02.760Z,572.8333
2023-04-27T11:34:07.816Z,579.6667
2023-04-27T11:35:11.794Z,579.5000
2023-04-27T11:36:15.689Z,579.9167
2023-04-27T11:37:19.572Z,581.4167
2023-04-27T11:38:23.569Z,579.5000
2023-04-27T11:39:27.492Z,580.5833
2023-04-27T11:40:31.393Z,583.0000
2023-04-27T11:41:35.325Z,583.7500
2023-04-27T11:42:39.219Z,584.5000
2023-04-27T11:43:43.121Z,585.0833
2023-04-27T11:44:47.074Z,586.8333
2023-04-27T11:45:50.937Z,584.7500
2023-04-27T11:46:54.917Z,587.2500
2023-04-27T11:47:58.847Z,589.2500
2023-04-27T11:49:02.986Z,590.5833
2023-04-27T11:50:06.879Z,589.7500
2023-04-27T11:51:10.816Z,589.0000
2023-04-27T11:52:14.715Z,581.6667
2023-04-27T11:53:18.941Z,583.7500
2023-04-27T11:54:22.991Z,588.4167
2023-04-27T11:55:26.914Z,591.9167
2023-04-27T11:56:30.823Z,592.0000
2023-04-27T11:57:34.756Z,594.0000
2023-04-27T11:58:38.681Z,587.8333
2023-04-27T11:59:42.559Z,586.6667
2023-04-27T12:00:46.462Z,590.3333
2023-04-27T12:01:50.607Z,592.5000
2023-04-27T12:02:54.665Z,592.3333
2023-04-27T12:04:02.145Z,593.2500
2023-04-27T12:05:01.183Z,588.2727
2023-04-27T12:06:21.504Z,587.1667
2023-04-27T12:07:09.755Z,589.0000
2023-04-27T12:08:13.664Z,591.4167
2023-04-27T12:09:17.577Z,591.0000
2023-04-27T12:10:21.514Z,589.2500
2023-04-27T12:11:25.484Z,585.6667
2023-04-27T12:12:29.399Z,583.0000
2023-04-27T12:13:33.318Z,585.6667
2023-04-27T12:14:37.221Z,587.4167
2023-04-27T12:15:41.134Z,588.7500
2023-04-27T12:16:45.090Z,589.2500
2023-04-27T12:17:49.050Z,588.5000
2023-04-27T12:18:52.971Z,585.1667
2023-04-27T12:19:56.904Z,587.4167
2023-04-27T12:21:02.983Z,591.1667
2023-04-27T12:22:01.888Z,593.0909
2023-04-27T12:23:05.842Z,595.0833
2023-04-27T12:24:09.729Z,593.9167
2023-04-27T12:25:13.613Z,591.0833
2023-04-27T12:26:17.522Z,592.3333
2023-04-27T12:27:21.411Z,596.1667
2023-04-27T12:28:25.326Z,597.2500
2023-04-27T12:29:29.276Z,597.8333
2023-04-27T12:30:33.154Z,597.8333